Time;durP1;ratioP1;P1;durP2;ratioP2;P2;SDS_P1;SDS_P2;PMS_P1;PMS_P2;Temp;Humidity;BMP_temperature;BMP_pressure;BME280_temperature;BME280_humidity;BME280_pressure;Samples;Min_cycle;Max_cycle;Signal;HPM_P1;HPM_P2
2022/01/07 00:01:20;;;;;;;8.13;4.15;;;;;;;18.00;50.08;100054.38;5015286;28;20388;-91
2022/01/07 00:03:46;;;;;;;8.30;4.05;;;;;;;17.98;49.78;100057.91;5014130;28;20100;-91
2022/01/07 00:06:11;;;;;;;6.88;4.15;;;;;;;17.98;49.66;100060.53;5014100;28;20026;-90
2022/01/07 00:08:37;;;;;;;6.68;4.03;;;;;;;18.00;49.61;100067.56;5017937;28;20125;-89
2022/01/07 00:11:03;;;;;;;9.15;5.00;;;;;;;17.98;49.49;100064.97;5017303;28;20482;-90
2022/01/07 00:13:29;;;;;;;8.00;3.83;;;;;;;17.91;49.68;100053.78;5018279;28;20029;-90
2022/01/07 00:15:55;;;;;;;7.35;3.85;;;;;;;17.93;50.02;100062.50;5017457;28;20041;-89
2022/01/07 00:18:22;;;;;;;6.88;4.03;;;;;;;17.92;49.77;100055.50;5017402;28;20384;-90
2022/01/07 00:20:47;;;;;;;7.10;4.28;;;;;;;17.92;49.83;100057.31;5017503;28;20065;-91
2022/01/07 00:23:13;;;;;;;6.95;4.15;;;;;;;17.93;49.71;100057.22;5018064;28;20032;-89
2022/01/07 00:25:39;;;;;;;5.78;3.80;;;;;;;17.91;49.57;100059.06;5017173;28;20076;-92
2022/01/07 00:28:04;;;;;;;6.38;3.92;;;;;;;17.93;49.87;100051.94;5033860;28;20046;-92
2022/01/07 00:30:30;;;;;;;6.45;3.58;;;;;;;17.92;49.96;100050.22;5017460;28;20072;-91
2022/01/07 00:32:56;;;;;;;7.00;3.72;;;;;;;17.88;49.94;100047.75;5017802;28;20036;-90
2022/01/07 00:35:22;;;;;;;6.30;3.80;;;;;;;17.86;49.71;100045.19;5017177;28;20049;-89
2022/01/07 00:37:49;;;;;;;6.97;4.07;;;;;;;17.88;49.55;100053.91;5017075;28;20121;-90
2022/01/07 00:40:18;;;;;;;5.97;3.70;;;;;;;17.87;50.10;100052.16;5017743;28;20076;-88
2022/01/07 00:42:45;;;;;;;6.60;3.80;;;;;;;17.83;49.96;100053.22;5016810;28;20076;-89
2022/01/07 00:45:12;;;;;;;6.90;3.70;;;;;;;17.83;49.96;100061.16;5033211;28;20025;-89
2022/01/07 00:47:38;;;;;;;7.38;4.30;;;;;;;17.85;49.77;100054.91;5016591;28;20475;-89
2022/01/07 00:50:06;;;;;;;7.53;4.32;;;;;;;17.83;49.69;100042.66;5016290;28;20054;-90
2022/01/07 00:52:33;;;;;;;6.18;3.53;;;;;;;17.84;49.90;100036.47;5016536;28;20030;-89
2022/01/07 00:54:59;;;;;;;6.65;3.53;;;;;;;17.82;50.01;100043.59;5016430;28;20133;-88
2022/01/07 00:57:25;;;;;;;7.80;3.60;;;;;;;17.83;49.87;100030.31;5016251;28;20026;-87
2022/01/07 00:59:51;;;;;;;5.68;3.63;;;;;;;17.82;49.91;100044.44;5016416;28;20037;-88
2022/01/07 01:02:17;;;;;;;6.05;3.53;;;;;;;17.78;49.84;100040.19;5016234;28;20022;-88
2022/01/07 01:04:44;;;;;;;6.38;3.92;;;;;;;17.82;49.86;100044.44;5032923;28;20072;-88
2022/01/07 01:07:10;;;;;;;6.22;3.35;;;;;;;17.80;49.97;100034.84;5016314;28;20046;-87
2022/01/07 01:09:36;;;;;;;6.35;3.47;;;;;;;17.83;49.73;100040.88;5016167;28;20018;-88
2022/01/07 01:12:03;;;;;;;5.70;3.42;;;;;;;17.85;49.65;100043.47;5016581;28;20433;-89
2022/01/07 01:14:29;;;;;;;6.50;3.80;;;;;;;17.81;49.87;100033.94;5016612;28;20522;-90
2022/01/07 01:16:55;;;;;;;5.55;3.33;;;;;;;17.80;49.96;100030.44;5016677;28;20026;-89
2022/01/07 01:19:22;;;;;;;5.35;3.50;;;;;;;17.82;49.80;100028.59;5015395;28;20091;-90
2022/01/07 01:21:49;;;;;;;5.15;3.25;;;;;;;17.83;50.05;100034.75;5016991;28;20029;-90
2022/01/07 01:24:14;;;;;;;6.18;3.78;;;;;;;17.82;49.91;100043.59;5015852;28;20402;-90
2022/01/07 01:26:40;;;;;;;6.35;3.63;;;;;;;17.79;49.97;100043.69;5032706;28;20080;-89
2022/01/07 01:29:06;;;;;;;5.85;2.90;;;;;;;17.75;50.13;100036.81;5016081;28;20066;-89
2022/01/07 01:31:32;;;;;;;6.30;3.30;;;;;;;17.75;50.10;100039.44;5016885;28;20021;-89
2022/01/07 01:33:58;;;;;;;7.85;3.78;;;;;;;17.74;49.99;100041.25;5016838;28;20033;-89
2022/01/07 01:36:24;;;;;;;7.03;3.60;;;;;;;17.74;49.68;100043.88;5016678;28;20018;-91
2022/01/07 01:38:50;;;;;;;5.82;3.42;;;;;;;17.70;49.66;100040.50;5015783;28;20026;-91
2022/01/07 01:41:15;;;;;;;6.95;3.60;;;;;;;17.74;49.71;100045.66;5015656;28;20021;-90
2022/01/07 01:43:41;;;;;;;5.90;3.10;;;;;;;17.74;49.72;100053.56;5015553;28;20141;-90
2022/01/07 01:46:07;;;;;;;6.45;3.50;;;;;;;17.68;49.82;100057.31;5015730;28;20087;-88
2022/01/07 01:48:32;;;;;;;7.15;4.13;;;;;;;17.70;49.60;100058.97;5015531;28;20025;-89
2022/01/07 01:50:58;;;;;;;6.47;3.42;;;;;;;17.61;49.58;100064.59;5031853;28;20488;-89
2022/01/07 01:53:25;;;;;;;6.30;3.50;;;;;;;17.66;49.56;100067.91;5015397;28;20040;-89
2022/01/07 01:55:52;;;;;;;7.75;3.60;;;;;;;17.65;49.68;100066.22;5031849;28;20108;-89
2022/01/07 01:58:17;;;;;;;6.03;3.03;;;;;;;17.67;49.43;100072.28;5031895;28;20084;-91
2022/01/07 02:00:43;;;;;;;5.80;3.13;;;;;;;17.63;49.45;100070.66;5016526;28;20041;-91
2022/01/07 02:03:08;;;;;;;7.28;3.70;;;;;;;17.64;49.68;100082.09;5015758;28;20117;-89
2022/01/07 02:05:34;;;;;;;6.45;3.35;;;;;;;17.63;49.38;100086.50;5031987;28;20021;-90
2022/01/07 02:08:00;;;;;;;5.38;3.22;;;;;;;17.62;49.54;100090.06;5016313;28;20053;-91
2022/01/07 02:10:27;;;;;;;6.10;3.30;;;;;;;17.62;49.56;100083.94;5015504;28;20030;-89
2022/01/07 02:12:52;;;;;;;6.47;3.47;;;;;;;17.64;49.21;100088.25;5015646;28;20113;-91
2022/01/07 02:15:18;;;;;;;6.00;3.25;;;;;;;17.62;49.07;100092.69;5031816;28;20029;-89
2022/01/07 02:17:49;;;;;;;6.78;3.40;;;;;;;17.64;49.35;100097.94;5015911;28;20057;-89
2022/01/07 02:20:17;;;;;;;6.57;3.50;;;;;;;17.61;48.98;100096.25;5015998;28;20034;-90
2022/01/07 02:22:43;;;;;;;5.65;3.13;;;;;;;17.63;49.09;100102.34;5014967;28;20040;-91
2022/01/07 02:25:10;;;;;;;6.70;3.50;;;;;;;17.61;49.35;100093.63;5015930;28;20033;-90
2022/01/07 02:27:41;;;;;;;5.80;3.30;;;;;;;17.59;49.17;100092.81;5015096;28;20036;-89
2022/01/07 02:30:10;;;;;;;5.20;3.13;;;;;;;17.61;49.30;100098.91;5015263;28;20049;-90
2022/01/07 02:32:36;;;;;;;7.95;3.72;;;;;;;17.60;49.54;100097.19;5014658;28;20029;-91
2022/01/07 02:35:02;;;;;;;5.47;3.33;;;;;;;17.59;49.27;100100.75;5014767;28;20028;-90
2022/01/07 02:37:27;;;;;;;5.20;3.40;;;;;;;17.57;49.10;100098.16;5014993;28;20033;-89
2022/01/07 02:39:54;;;;;;;5.90;3.35;;;;;;;17.57;49.24;100097.28;5014964;28;20025;-89
2022/01/07 02:42:20;;;;;;;5.88;3.67;;;;;;;17.52;49.19;100093.94;5014783;28;20026;-89
2022/01/07 02:44:46;;;;;;;5.88;3.58;;;;;;;17.55;49.01;100099.13;5015736;28;20525;-90
2022/01/07 02:47:11;;;;;;;4.60;3.03;;;;;;;17.51;49.42;100098.38;5014962;28;20021;-91
2022/01/07 02:49:37;;;;;;;6.03;3.50;;;;;;;17.49;49.35;100094.06;5017347;28;20053;-89
2022/01/07 02:52:03;;;;;;;6.70;3.45;;;;;;;17.47;49.43;100095.91;5017613;28;20463;-88
2022/01/07 02:54:29;;;;;;;6.25;3.95;;;;;;;17.48;49.18;100095.84;5017916;28;20021;-91
2022/01/07 02:56:54;;;;;;;5.78;3.53;;;;;;;17.49;49.21;100088.78;5017942;28;20030;-90
2022/01/07 02:59:20;;;;;;;5.28;3.17;;;;;;;17.44;49.37;100087.16;5017730;28;20111;-90
2022/01/07 03:01:45;;;;;;;6.50;3.28;;;;;;;17.45;49.30;100088.88;5034195;28;20029;-90
2022/01/07 03:04:11;;;;;;;6.97;3.70;;;;;;;17.48;49.09;100089.72;5017791;28;20025;-90
2022/01/07 03:06:37;;;;;;;5.93;3.20;;;;;;;17.45;49.05;100094.16;5035186;28;20444;-90
2022/01/07 03:09:04;;;;;;;5.88;3.58;;;;;;;17.44;49.32;100095.09;5017541;28;20372;-90
2022/01/07 03:11:30;;;;;;;6.50;3.58;;;;;;;17.50;48.96;100101.06;5017917;28;20107;-90
2022/01/07 03:13:56;;;;;;;5.75;3.85;;;;;;;17.45;48.79;100104.72;5017887;28;20029;-90
2022/01/07 03:16:22;;;;;;;6.30;3.83;;;;;;;17.44;48.95;100095.09;5017672;28;20070;-90
2022/01/07 03:18:47;;;;;;;6.82;3.92;;;;;;;17.47;48.60;100095.91;5017327;28;20030;-90
2022/01/07 03:21:14;;;;;;;6.85;3.83;;;;;;;17.48;48.64;100092.34;5017938;28;20033;-91
2022/01/07 03:23:40;;;;;;;6.53;4.00;;;;;;;17.44;48.74;100092.44;5017679;28;20103;-91
2022/01/07 03:26:07;;;;;;;5.85;3.60;;;;;;;17.45;48.86;100094.16;5034182;28;20041;-92
2022/01/07 03:28:33;;;;;;;6.43;4.15;;;;;;;17.45;48.63;100094.16;5017861;28;20052;-91
2022/01/07 03:30:59;;;;;;;6.80;3.60;;;;;;;17.43;49.07;100106.56;5017869;28;20432;-92
2022/01/07 03:33:25;;;;;;;6.32;3.70;;;;;;;17.44;48.77;100103.00;5035258;28;20061;-92
2022/01/07 03:35:51;;;;;;;6.32;4.03;;;;;;;17.39;48.74;100099.66;5034793;28;20414;-92
2022/01/07 03:38:16;;;;;;;6.55;3.58;;;;;;;17.39;48.73;100099.66;5017338;28;20032;-92
2022/01/07 03:40:42;;;;;;;5.82;3.35;;;;;;;17.42;48.44;100098.69;5017663;28;20029;-91
2022/01/07 03:43:08;;;;;;;6.38;4.00;;;;;;;17.39;48.54;100099.66;5020040;28;20125;-90
2022/01/07 03:45:33;;;;;;;6.13;3.90;;;;;;;17.38;48.62;100107.66;5021484;28;20056;-91
2022/01/07 03:47:59;;;;;;;5.82;3.58;;;;;;;17.35;48.94;100098.06;5021295;28;20112;-91
2022/01/07 03:50:26;;;;;;;6.57;4.07;;;;;;;17.31;48.88;100096.44;5017901;28;20208;-91
2022/01/07 03:52:54;;;;;;;6.88;3.95;;;;;;;17.30;48.96;100095.56;5017806;28;20074;-91
2022/01/07 03:55:23;;;;;;;5.75;3.55;;;;;;;17.31;48.66;100097.31;5017997;28;20529;-92
2022/01/07 03:57:49;;;;;;;5.88;3.70;;;;;;;17.33;48.74;100099.88;5017768;28;20030;-92
2022/01/07 04:00:18;;;;;;;6.22;3.47;;;;;;;17.35;48.59;100103.34;5017788;28;20032;-91
2022/01/07 04:02:45;;;;;;;6.32;3.88;;;;;;;17.30;48.84;100100.00;5018073;28;20040;-92
2022/01/07 04:05:11;;;;;;;5.63;3.47;;;;;;;17.31;48.72;100101.72;5017804;28;20029;-91
2022/01/07 04:07:37;;;;;;;5.82;3.55;;;;;;;17.26;48.80;100108.94;5017789;28;20030;-91
2022/01/07 04:10:04;;;;;;;5.85;3.47;;;;;;;17.27;48.79;100103.63;5017788;28;20026;-89
2022/01/07 04:12:30;;;;;;;4.90;3.30;;;;;;;17.30;48.81;100092.94;5017365;28;20037;-89
2022/01/07 04:15:08;;;;;;;5.90;3.67;;;;;;;17.27;48.83;100100.09;5017582;28;20040;-90
2022/01/07 04:17:42;;;;;;;6.63;4.10;;;;;;;17.29;49.01;100106.22;5018504;28;20091;-91
2022/01/07 04:20:10;;;;;;;7.28;3.63;;;;;;;17.29;48.80;100104.41;5017451;28;20040;-90
2022/01/07 04:22:36;;;;;;;6.63;3.53;;;;;;;17.28;48.98;100104.47;5017463;28;20026;-89
2022/01/07 04:25:06;;;;;;;6.72;3.45;;;;;;;17.26;48.91;100111.56;5017495;28;20040;-90
2022/01/07 04:27:32;;;;;;;5.72;3.50;;;;;;;17.25;48.56;100113.34;5017154;28;20183;-89
2022/01/07 04:29:57;;;;;;;6.13;3.80;;;;;;;17.29;48.74;100108.84;5017221;28;20468;-89
2022/01/07 04:32:23;;;;;;;5.95;3.40;;;;;;;17.24;48.79;100111.63;5018028;28;20025;-91
2022/01/07 04:34:49;;;;;;;6.00;3.75;;;;;;;17.29;48.87;100114.13;5017247;28;20036;-91
2022/01/07 04:37:15;;;;;;;6.30;3.63;;;;;;;17.23;48.75;100111.69;5016982;28;20037;-91
2022/01/07 04:39:41;;;;;;;6.35;3.00;;;;;;;17.22;48.65;100117.88;5016974;28;20026;-88
2022/01/07 04:42:07;;;;;;;6.88;3.50;;;;;;;17.20;48.68;100114.44;5017560;28;20034;-88
2022/01/07 04:44:35;;;;;;;5.38;3.28;;;;;;;17.24;48.66;100126.59;5016801;28;20523;-90
2022/01/07 04:47:01;;;;;;;5.78;3.60;;;;;;;17.21;48.67;100126.69;5016880;28;20030;-90
2022/01/07 04:49:27;;;;;;;7.10;2.97;;;;;;;17.18;48.90;100119.75;5033217;28;20026;-90
2022/01/07 04:51:52;;;;;;;6.45;3.58;;;;;;;17.23;48.75;100124.88;5036783;28;20119;-90
2022/01/07 04:54:18;;;;;;;4.90;3.15;;;;;;;17.20;48.61;100124.97;5019087;28;20110;-91
2022/01/07 04:56:43;;;;;;;5.50;2.92;;;;;;;17.23;48.81;100119.63;5036541;28;20044;-90
2022/01/07 04:59:09;;;;;;;6.65;3.42;;;;;;;17.21;49.00;100124.06;5019957;28;20057;-91
2022/01/07 05:01:34;;;;;;;4.95;2.70;;;;;;;17.19;48.96;100121.47;5019894;28;20108;-91
2022/01/07 05:04:00;;;;;;;5.05;3.08;;;;;;;17.21;49.11;100127.56;5019913;28;20071;-92
2022/01/07 05:08:54;;;;;;;5.90;3.72;;;;;;;17.22;49.02;100118.75;5037257;28;20025;-92
2022/01/07 05:11:19;;;;;;;5.43;3.20;;;;;;;17.22;49.04;100123.13;5019892;28;20033;-92
2022/01/07 05:13:45;;;;;;;4.97;3.25;;;;;;;17.18;49.16;100110.06;5019801;28;20025;-92
2022/01/07 05:16:10;;;;;;;4.97;3.05;;;;;;;17.21;49.24;100110.88;5019717;28;20025;-92
2022/01/07 05:18:36;;;;;;;4.88;2.78;;;;;;;17.17;48.99;100116.28;5035901;28;20021;-91
2022/01/07 05:21:01;;;;;;;4.72;3.35;;;;;;;17.18;49.06;100117.97;5019574;28;20363;-90
2022/01/07 05:23:27;;;;;;;5.00;3.17;;;;;;;17.20;49.15;100114.44;5019506;28;20025;-88
2022/01/07 05:25:53;;;;;;;5.35;2.90;;;;;;;17.22;49.28;100117.88;5035965;28;20029;-90
2022/01/07 05:28:18;;;;;;;5.93;3.00;;;;;;;17.16;49.28;100114.53;5019355;28;20426;-92
2022/01/07 05:30:44;;;;;;;4.88;2.75;;;;;;;17.18;48.96;100117.97;5019271;28;20522;-92
2022/01/07 05:33:09;;;;;;;5.78;2.90;;;;;;;17.20;48.95;100117.06;5036683;28;20518;-92
2022/01/07 05:35:35;;;;;;;4.90;2.67;;;;;;;17.20;48.93;100111.78;5019406;28;20033;-91
2022/01/07 05:38:01;;;;;;;4.50;2.58;;;;;;;17.20;49.08;100119.69;5019126;28;20379;-92
2022/01/07 05:40:26;;;;;;;5.15;3.15;;;;;;;17.20;48.82;100119.69;5019273;28;20436;-91
2022/01/07 05:42:52;;;;;;;6.05;3.28;;;;;;;17.17;49.05;100115.41;5019059;28;20052;-91
2022/01/07 05:45:17;;;;;;;5.25;2.80;;;;;;;17.15;48.97;100120.72;5019007;28;20112;-90
2022/01/07 05:47:43;;;;;;;5.50;3.00;;;;;;;17.17;49.26;100124.19;5019122;28;20025;-93
2022/01/07 05:50:10;;;;;;;5.38;2.78;;;;;;;17.14;49.18;100126.91;5018923;28;20088;-91
2022/01/07 05:52:35;;;;;;;5.63;3.00;;;;;;;17.12;49.05;100118.19;5019218;28;20400;-90
2022/01/07 05:55:05;;;;;;;5.35;2.80;;;;;;;17.14;49.21;100128.69;5018883;28;20041;-87
2022/01/07 05:57:30;;;;;;;5.95;3.30;;;;;;;17.17;49.09;100126.81;5020886;28;20072;-89
2022/01/07 05:59:56;;;;;;;5.05;2.65;;;;;;;17.17;49.08;100129.44;5035356;28;20135;-90
2022/01/07 06:02:22;;;;;;;5.88;2.70;;;;;;;17.20;48.96;100135.53;5018875;28;20095;-90
2022/01/07 06:04:47;;;;;;;4.68;2.63;;;;;;;17.20;49.01;100135.53;5018554;28;20029;-85
2022/01/07 06:07:14;;;;;;;4.30;2.50;;;;;;;17.17;48.73;100137.38;5030304;28;20045;-86
2022/01/07 06:09:41;;;;;;;4.63;2.70;;;;;;;17.19;48.68;100139.94;5016414;28;20463;-85
2022/01/07 06:12:08;;;;;;;5.90;2.90;;;;;;;17.18;48.81;100144.34;5026084;28;20047;-87
2022/01/07 06:14:33;;;;;;;5.40;3.00;;;;;;;17.18;48.73;100143.47;5018375;28;20431;-89
2022/01/07 06:17:00;;;;;;;5.38;2.97;;;;;;;17.12;48.61;100144.56;5014566;28;20025;-88
2022/01/07 06:19:26;;;;;;;4.60;2.92;;;;;;;17.15;48.79;100144.44;5015030;28;20036;-90
2022/01/07 06:21:51;;;;;;;5.20;2.90;;;;;;;17.14;48.97;100142.72;5017892;28;20109;-87
2022/01/07 06:24:17;;;;;;;6.15;2.97;;;;;;;17.16;48.76;100145.31;5020650;28;20053;-91
2022/01/07 06:26:43;;;;;;;4.47;2.70;;;;;;;17.14;48.84;100147.16;5029974;28;20525;-94
2022/01/07 06:29:11;;;;;;;4.78;2.70;;;;;;;17.11;48.82;100148.13;5019620;28;20040;-94
2022/01/07 06:31:37;;;;;;;4.70;2.53;;;;;;;17.15;48.98;100154.16;5019257;28;20447;-94
2022/01/07 06:34:03;;;;;;;4.18;2.45;;;;;;;17.16;48.71;100161.16;5016570;28;20121;-88
2022/01/07 06:36:29;;;;;;;5.13;3.00;;;;;;;17.16;48.49;100167.25;5023177;28;20471;-87
2022/01/07 06:38:55;;;;;;;4.88;2.75;;;;;;;17.13;48.63;100167.38;5032683;28;20025;-89
2022/01/07 06:41:20;;;;;;;5.93;2.80;;;;;;;17.13;49.00;100169.16;5023099;28;20546;-90
2022/01/07 06:43:46;;;;;;;5.22;2.67;;;;;;;17.13;48.54;100163.88;5022889;28;20094;-88
2022/01/07 06:46:13;;;;;;;4.30;2.35;;;;;;;17.10;48.42;100162.19;5027759;28;20111;-83
2022/01/07 06:48:41;;;;;;;5.47;2.97;;;;;;;17.12;48.71;100160.38;5026490;28;20512;-84
2022/01/07 06:51:06;;;;;;;4.95;2.83;;;;;;;17.11;48.58;100161.31;5004579;28;20045;-89
2022/01/07 06:53:32;;;;;;;4.68;2.60;;;;;;;17.10;49.02;100153.44;5022661;28;20033;-88
2022/01/07 06:55:58;;;;;;;3.75;2.42;;;;;;;17.13;48.72;100151.56;5027051;28;20058;-89
2022/01/07 06:58:24;;;;;;;4.50;2.50;;;;;;;17.09;48.97;100155.22;5016304;28;20029;-87
2022/01/07 07:00:49;;;;;;;3.40;2.10;;;;;;;17.12;48.71;100159.50;5033894;28;20025;-89
2022/01/07 07:03:15;;;;;;;5.80;2.60;;;;;;;17.09;48.59;100163.13;5033032;28;20345;-88
2022/01/07 07:05:40;;;;;;;4.75;2.58;;;;;;;17.06;48.97;100157.97;5033541;28;20041;-87
2022/01/07 07:08:06;;;;;;;4.47;2.42;;;;;;;17.11;48.79;100163.06;5032068;28;20039;-86
2022/01/07 07:10:31;;;;;;;5.43;2.78;;;;;;;17.11;48.87;100158.66;5031825;28;20513;-88
2022/01/07 07:12:58;;;;;;;4.30;2.47;;;;;;;17.08;48.89;100163.16;5032135;28;20052;-87
2022/01/07 07:15:24;;;;;;;5.85;2.60;;;;;;;17.11;48.95;100160.44;5032880;28;20035;-87
2022/01/07 07:17:49;;;;;;;4.63;2.42;;;;;;;17.11;49.01;100161.31;5034181;28;20091;-88
2022/01/07 07:20:15;;;;;;;5.18;2.80;;;;;;;17.14;48.85;100158.56;5036123;28;20036;-87
2022/01/07 07:22:40;;;;;;;4.53;2.28;;;;;;;17.11;49.23;100157.78;5019654;28;20025;-87
2022/01/07 07:25:06;;;;;;;4.93;2.40;;;;;;;17.14;48.66;100158.56;5036126;28;20471;-87
2022/01/07 07:27:32;;;;;;;5.30;2.65;;;;;;;17.15;49.07;100149.72;5019292;28;20053;-87
2022/01/07 07:29:57;;;;;;;4.10;2.45;;;;;;;17.14;48.88;100149.81;5036943;28;20049;-88
2022/01/07 07:32:27;;;;;;;4.60;2.50;;;;;;;17.18;48.80;100154.91;5021321;28;20029;-87
2022/01/07 07:36:26;;;;;;;4.95;2.42;;;;;;;17.14;49.11;100157.72;5037724;28;20033;-88
2022/01/07 07:37:50;;;;;;;4.88;2.50;;;;;;;17.14;49.08;100171.75;5037988;28;20066;-86
2022/01/07 07:40:17;;;;;;;4.28;2.10;;;;;;;17.13;48.96;100175.28;5038379;28;20112;-88
2022/01/07 07:42:43;;;;;;;4.53;2.38;;;;;;;17.11;48.68;100179.78;5037504;28;20025;-87
2022/01/07 07:45:09;;;;;;;5.07;2.20;;;;;;;17.07;48.94;100188.69;5037401;28;20037;-87
2022/01/07 07:47:35;;;;;;;4.03;2.30;;;;;;;17.08;48.84;100190.41;5037501;28;20036;-89
2022/01/07 07:50:02;;;;;;;4.95;2.53;;;;;;;17.09;48.82;100197.41;5038252;28;20057;-86
2022/01/07 07:52:28;;;;;;;5.10;2.90;;;;;;;17.09;48.72;100194.75;5038242;28;20524;-82
2022/01/07 07:54:54;;;;;;;5.57;2.80;;;;;;;17.13;48.53;100204.31;5037398;28;20061;-87
2022/01/07 07:57:20;;;;;;;5.18;2.60;;;;;;;17.09;48.73;100215.84;5037332;28;20072;-88
2022/01/07 07:59:46;;;;;;;4.28;2.40;;;;;;;17.09;48.70;100217.66;5037318;28;20044;-87
2022/01/07 08:02:13;;;;;;;4.88;2.55;;;;;;;17.07;48.41;100222.09;5038127;28;20459;-88
2022/01/07 08:04:39;;;;;;;5.63;2.30;;;;;;;17.05;48.37;100222.16;5020897;28;20025;-88
2022/01/07 08:07:05;;;;;;;4.80;2.42;;;;;;;17.07;48.53;100215.06;5037918;28;20029;-88
2022/01/07 08:09:36;;;;;;;4.28;2.22;;;;;;;17.03;48.34;100209.03;5037028;28;20025;-87
2022/01/07 08:12:16;;;;;;;4.00;2.17;;;;;;;17.03;48.62;100213.41;5036933;28;20067;-86
2022/01/07 08:17:26;;;;;;;4.00;2.28;;;;;;;17.00;48.58;100203.78;5037920;28;20040;-87
2022/01/07 08:19:52;;;;;;;4.22;2.30;;;;;;;17.00;48.63;100202.97;5037663;28;20033;-87
2022/01/07 08:22:18;;;;;;;5.00;2.53;;;;;;;17.02;48.60;100206.41;5036888;28;20029;-88
2022/01/07 08:24:43;;;;;;;4.85;2.67;;;;;;;17.00;48.32;100198.53;5036610;28;20025;-88
2022/01/07 08:27:09;;;;;;;4.15;2.30;;;;;;;17.02;48.65;100206.41;5036717;28;20029;-88
2022/01/07 08:29:37;;;;;;;4.68;2.60;;;;;;;17.02;48.22;100212.56;5036539;28;20029;-88
2022/01/07 08:34:55;;;;;;;4.75;2.38;;;;;;;17.04;48.26;100213.38;5037589;28;20487;-87
2022/01/07 08:37:27;;;;;;;4.78;2.30;;;;;;;17.02;48.54;100212.56;5036286;28;20040;-88
2022/01/07 08:39:55;;;;;;;4.72;2.58;;;;;;;17.00;48.46;100209.06;5037580;28;20090;-88
2022/01/07 08:42:25;;;;;;;5.38;2.50;;;;;;;17.01;48.49;100204.69;5019911;28;20029;-87
2022/01/07 08:44:52;;;;;;;4.47;2.28;;;;;;;17.02;48.40;100214.31;5036274;28;20040;-87
2022/01/07 08:47:24;;;;;;;4.53;2.60;;;;;;;17.04;48.22;100221.28;5037169;28;20047;-87
2022/01/07 08:49:51;;;;;;;5.90;2.65;;;;;;;17.01;48.46;100217.84;5036911;28;20029;-87
2022/01/07 08:52:19;;;;;;;4.53;2.45;;;;;;;17.01;48.28;100209.94;5037707;28;20025;-86
2022/01/07 08:54:45;;;;;;;5.15;2.40;;;;;;;16.99;48.31;100211.75;5036664;28;20424;-87
2022/01/07 08:57:11;;;;;;;5.25;2.35;;;;;;;16.97;48.39;100213.59;5037036;28;20109;-87
2022/01/07 08:59:36;;;;;;;5.35;2.60;;;;;;;17.02;48.31;100222.22;5037085;28;20037;-87
2022/01/07 09:02:02;;;;;;;4.75;2.67;;;;;;;16.98;48.41;100225.84;5036035;28;20056;-87
2022/01/07 09:04:28;;;;;;;6.30;2.85;;;;;;;16.96;48.23;100227.69;5036169;28;20364;-87
2022/01/07 09:06:53;;;;;;;4.50;2.58;;;;;;;16.94;48.41;100229.53;5019680;28;20033;-88
2022/01/07 09:09:19;;;;;;;3.78;2.10;;;;;;;16.92;48.25;100238.31;5035836;28;20025;-88
2022/01/07 09:11:45;;;;;;;4.40;2.45;;;;;;;16.99;48.08;100238.13;5035778;28;20119;-86
2022/01/07 09:14:10;;;;;;;5.72;2.47;;;;;;;16.97;48.31;100247.84;5036825;28;20113;-86
2022/01/07 09:16:36;;;;;;;6.18;3.20;;;;;;;17.00;47.98;100245.13;5035810;28;20025;-87
2022/01/07 09:19:03;;;;;;;6.15;2.90;;;;;;;16.94;48.14;100250.59;5035813;28;20033;-87
2022/01/07 09:21:29;;;;;;;5.85;3.25;;;;;;;16.92;48.37;100255.91;5035586;28;20029;-87
2022/01/07 09:23:55;;;;;;;4.80;2.25;;;;;;;16.97;48.18;100266.31;5035780;28;20112;-87
2022/01/07 09:26:21;;;;;;;6.00;3.17;;;;;;;16.94;48.28;100269.06;5036808;28;20026;-87
2022/01/07 09:28:46;;;;;;;4.90;2.67;;;;;;;16.96;47.98;100273.38;5035344;28;20426;-87
2022/01/07 09:31:14;;;;;;;4.38;2.38;;;;;;;16.95;48.15;100262.88;5035349;28;20029;-87
2022/01/07 09:33:40;;;;;;;4.25;2.45;;;;;;;16.94;48.03;100261.16;5035633;28;20120;-87
2022/01/07 09:36:08;;;;;;;5.63;2.90;;;;;;;16.94;48.02;100255.88;5036391;28;20059;-86
2022/01/07 09:38:33;;;;;;;4.53;2.55;;;;;;;16.98;48.04;100258.38;5036363;28;20033;-83
2022/01/07 09:40:59;;;;;;;5.00;2.50;;;;;;;16.95;48.02;100245.25;5034905;28;20094;-86
2022/01/07 09:43:25;;;;;;;4.82;2.33;;;;;;;16.97;47.76;100243.47;5035228;28;20061;-87
2022/01/07 09:45:51;;;;;;;6.95;2.60;;;;;;;16.96;47.91;100243.50;5036011;28;20426;-86
2022/01/07 09:48:17;;;;;;;5.20;2.92;;;;;;;16.91;48.14;100255.03;5018772;28;20443;-87
2022/01/07 09:50:42;;;;;;;6.13;3.20;;;;;;;16.92;48.16;100275.22;5031618;28;20054;-88
2022/01/07 09:53:15;;;;;;;5.68;2.35;;;;;;;16.96;47.83;100275.13;5016395;28;20123;-86
2022/01/07 09:55:43;;;;;;;4.72;2.65;;;;;;;16.95;47.86;100276.06;5014998;28;20025;-86
2022/01/07 09:58:10;;;;;;;5.07;2.72;;;;;;;16.90;47.90;100279.69;5016126;28;20065;-86
2022/01/07 10:00:44;;;;;;;5.82;3.10;;;;;;;16.92;48.01;100280.50;5016322;28;20083;-86
2022/01/07 10:03:13;;;;;;;5.10;2.90;;;;;;;16.95;47.89;100284.81;5031139;28;20034;-86
2022/01/07 10:05:47;;;;;;;5.15;3.13;;;;;;;16.93;47.59;100289.28;5014754;28;20030;-86
2022/01/07 10:08:23;;;;;;;5.57;2.72;;;;;;;16.94;47.93;100288.38;5031177;28;20026;-86
2022/01/07 10:11:18;;;;;;;5.07;2.72;;;;;;;16.92;47.95;100296.31;5014717;28;20117;-86
2022/01/07 10:13:45;;;;;;;5.22;3.00;;;;;;;16.92;48.01;100301.59;5015747;28;20037;-85
2022/01/07 10:16:17;;;;;;;5.97;3.00;;;;;;;16.90;47.73;100308.69;5031170;28;20041;-85
2022/01/07 10:18:43;;;;;;;4.80;2.65;;;;;;;16.89;47.89;100311.38;5030890;28;20033;-86
2022/01/07 10:21:11;;;;;;;7.15;3.47;;;;;;;16.88;47.75;100310.53;5015704;28;20033;-85
2022/01/07 10:23:37;;;;;;;5.15;2.88;;;;;;;16.91;47.92;100318.31;5014645;28;20026;-85
2022/01/07 10:26:03;;;;;;;5.43;2.85;;;;;;;16.86;47.92;100307.03;5015552;28;20065;-86
2022/01/07 10:28:31;;;;;;;6.50;3.03;;;;;;;16.91;47.98;100309.56;5031087;28;20087;-87
2022/01/07 10:31:00;;;;;;;6.10;3.30;;;;;;;16.90;47.92;100303.41;5015535;28;20510;-85
2022/01/07 10:33:35;;;;;;;5.57;2.78;;;;;;;16.90;47.83;100313.97;5030887;28;20030;-86
2022/01/07 10:36:07;;;;;;;5.80;3.20;;;;;;;16.94;48.09;100309.44;5015399;28;20061;-84
2022/01/07 10:38:45;;;;;;;5.95;3.47;;;;;;;16.95;47.75;100313.81;5015292;28;20022;-86
2022/01/07 10:41:12;;;;;;;5.57;2.92;;;;;;;16.88;47.75;100320.19;5030667;28;20200;-87
2022/01/07 10:43:38;;;;;;;6.25;3.35;;;;;;;16.93;47.69;100323.56;5030747;28;20033;-87
2022/01/07 10:46:12;;;;;;;5.32;3.13;;;;;;;16.90;47.83;100319.22;5014885;28;20504;-87
2022/01/07 10:48:43;;;;;;;5.82;2.95;;;;;;;16.87;47.86;100303.53;5014078;28;20030;-85
2022/01/07 10:51:18;;;;;;;5.18;2.70;;;;;;;16.88;47.84;100297.34;5029910;28;20053;-88
2022/01/07 10:53:54;;;;;;;5.00;3.08;;;;;;;16.89;48.15;100296.41;5015059;28;20030;-87
2022/01/07 10:56:22;;;;;;;4.82;2.90;;;;;;;16.88;47.93;100304.38;5015236;28;20026;-87
2022/01/07 10:58:57;;;;;;;4.60;3.00;;;;;;;16.86;48.07;100299.13;5030418;28;20127;-88
2022/01/07 11:01:32;;;;;;;4.78;2.72;;;;;;;16.86;48.17;100303.56;5030228;28;20391;-86
2022/01/07 11:04:00;;;;;;;5.38;3.35;;;;;;;16.87;48.22;100300.88;5030272;28;20034;-86
2022/01/07 11:06:28;;;;;;;6.35;3.22;;;;;;;16.90;48.05;100302.53;5030353;28;20041;-86
2022/01/07 11:08:56;;;;;;;5.03;3.00;;;;;;;16.87;48.12;100308.81;5014866;28;20033;-86
2022/01/07 11:11:23;;;;;;;6.90;3.33;;;;;;;16.85;47.93;100305.31;5015191;28;20108;-87
2022/01/07 11:13:50;;;;;;;5.97;3.05;;;;;;;16.85;47.86;100305.31;5030104;28;20471;-86
2022/01/07 11:16:17;;;;;;;4.18;2.70;;;;;;;16.87;48.13;100300.88;5014812;28;20461;-84
2022/01/07 11:18:45;;;;;;;4.82;2.80;;;;;;;16.87;47.86;100298.25;5030388;28;20057;-87
2022/01/07 11:21:11;;;;;;;5.22;2.92;;;;;;;16.83;48.14;100299.25;5030399;28;20460;-85
2022/01/07 11:23:38;;;;;;;5.93;3.33;;;;;;;16.88;48.09;100310.53;5030205;28;20029;-85
2022/01/07 11:26:08;;;;;;;4.47;2.70;;;;;;;16.89;47.89;100311.38;5030152;28;20025;-85
2022/01/07 11:28:34;;;;;;;5.78;2.88;;;;;;;16.88;48.20;100328.97;5014777;28;20032;-86
2022/01/07 11:31:14;;;;;;;5.43;2.97;;;;;;;16.87;48.03;100324.63;5030298;28;20121;-85